This is the latest recevied weather packets stored in our database for station/object K4MGY-13. If no packets are shown the sender has not sent any weather packets the latest 1 day(s).
| Time | Temp. | Humidity | Pressure | Rain* | Wind** | Luminosity | Snow |
|---|---|---|---|---|---|---|---|
| 1778087320 | 12.78° C | 94% | 1013.5 hPa | 0 mm | - | - | - |
| 1778086990 | 12.78° C | 94% | 1013.2 hPa | 0 mm | - | - | - |
| 1778085730 | 12.78° C | 95% | 1013.5 hPa | 0 mm | - | - | - |
| 1778084440 | 12.78° C | 94% | 1013.2 hPa | 0 mm | - | - | - |
| 1778083840 | 12.78° C | 94% | 1013.2 hPa | 0 mm | - | - | - |
| 1778083240 | 12.78° C | 94% | 1013.2 hPa | 0 mm | - | - | - |
| 1778082610 | 12.78° C | 95% | 1013.5 hPa | 0 mm | - | - | - |
| 1778082310 | 12.78° C | 95% | 1013.2 hPa | 0 mm | - | - | - |
| 1778081680 | 12.22° C | 95% | 1013.5 hPa | 0 mm | - | - | - |
| 1778081050 | 12.22° C | 94% | 1013.5 hPa | 0 mm | - | - | - |
| 1778080120 | 12.78° C | 95% | 1013.2 hPa | 0 mm | - | - | - |
| 1778079790 | 12.78° C | 95% | 1012.9 hPa | 0 mm | - | - | - |
| 1778079460 | 12.78° C | 95% | 1012.9 hPa | 0 mm | - | - | - |
| 1778079160 | 12.78° C | 95% | 1012.9 hPa | 0 mm | - | - | - |
| 1778077840 | 12.22° C | 95% | 1012.5 hPa | 0 mm | - | - | - |
| 1778077210 | 12.78° C | 95% | 1012.2 hPa | 0.25 mm | - | - | - |
| 1778075680 | 12.78° C | 95% | 1011.5 hPa | 1.52 mm | - | - | - |
| 1778075020 | 12.78° C | 96% | 1011.5 hPa | 2.79 mm | - | - | - |
| 1778074690 | 13.33° C | 96% | 1010.8 hPa | 2.79 mm | - | - | - |
| 1778074030 | 12.78° C | 96% | 1009.8 hPa | 3.05 mm | - | - | - |
| 1778073701 | 12.78° C | 96% | 1010.2 hPa | 3.05 mm | - | - | - |
| 1778073070 | 12.78° C | 96% | 1010.5 hPa | 3.05 mm | - | - | - |
| 1778072742 | 12.78° C | 96% | 1010.8 hPa | 2.79 mm | - | - | - |
| 1778071480 | 12.78° C | 94% | 1012.2 hPa | 0.51 mm | - | - | - |
| 1778070190 | 12.78° C | 95% | 1011.5 hPa | 0 mm | - | - | - |
* Rain latest hour (hover to see other rain measurements)
** Current wind speed in m/s (hover to see current wind gust speed)